Currently 83°F in De Luz, California, USA
83°F
88°F / 63°F
calm
0.00"
Monday, September 25, 2017 4:54 PM PDT

De Luz, California Weather Summary
Last 36 Hours

Temperature Winds Hourly Humidity Dewpoint
Time Report Norm Report Norm Max Gusts Precip. Rpt. Norm Rpt. Norm Pressure
1Mon 04:54 PM  82.6°F  79°F  calm  3 mph  none  0.00"  21%  49%  37°F  57°F  29.74"
Mon 04:00 PM  84.3°F  81°F  calm  3 mph  9 mph  0.00"  21%  45%  39°F  57°F  29.74"
Mon 03:01 PM  83.4°F  83°F  1 mph W  3 mph  7 mph  0.00"  19%  42%  35°F  57°F  29.76"
Mon 02:00 PM  84.0°F  83°F  1 mph W  3 mph  2 mph  0.00"  15%  41%  30°F  57°F  29.77"
2Mon 01:18 PM  87.6°F  83°F  N/A  2 mph  N/A  ----  12%  41%  27°F  57°F  29.79"
Mon 01:00 PM  86.1°F  83°F  N/A  2 mph  N/A  0.00"  10%  41%  21°F  56°F  29.79"
Mon 12:00 PM  83.8°F  82°F  calm  1 mph  6 mph  0.00"  13%  43%  26°F  56°F  29.82"
Mon 11:00 AM  80.9°F  79°F  calm  1 mph  5 mph  0.00"  19%  48%  33°F  57°F  29.84"
Mon 10:01 AM  75.1°F  76°F  calm  calm  3 mph  0.00"  21%  53%  31°F  57°F  29.86"
Mon 09:01 AM  69.9°F  71°F  1 mph NE  calm  5 mph  0.00"  25%  62%  31°F  57°F  29.87"
Mon 08:00 AM  64.5°F  66°F  1 mph NE  calm  5 mph  0.00"  29%  69%  30°F  55°F  29.83"
Mon 07:00 AM  63.9°F  64°F  calm  calm  3 mph  0.00"  28%  70%  29°F  54°F  29.85"
Mon 06:00 AM  63.1°F  64°F  calm  calm  3 mph  0.00"  32%  71%  32°F  54°F  29.83"
Mon 05:00 AM  63.4°F  64°F  calm  calm  2 mph  0.00"  36%  72%  35°F  54°F  29.82"
Mon 04:01 AM  64.0°F  64°F  1 mph NE  calm  4 mph  0.00"  38%  72%  37°F  55°F  29.82"
Mon 03:00 AM  62.7°F  65°F  calm  calm  5 mph  0.00"  39%  72%  36°F  55°F  29.82"
3Mon 02:55 AM  62.7°F  65°F  calm  calm  5 mph  ----  38%  72%  36°F  55°F  29.82"
Mon 02:00 AM  64.7°F  65°F  calm  calm  1 mph  0.00"  36%  72%  36°F  55°F  29.83"
Mon 01:00 AM  66.6°F  65°F  calm  calm  1 mph  0.00"  31%  72%  34°F  55°F  29.83"
Mon 12:00 AM  65.3°F  65°F  calm  calm  3 mph  0.00"  35%  72%  36°F  56°F  29.85"
Sun 11:00 PM  62.4°F  65°F  calm  calm  1 mph  0.00"  37%  74%  35°F  56°F  29.86"
Sun 10:00 PM  63.2°F  65°F  calm  calm  none  0.00"  36%  75%  35°F  57°F  29.87"
Sun 09:00 PM  65.5°F  65°F  calm  calm  none  0.00"  34%  75%  35°F  57°F  29.83"
Sun 08:00 PM  68.8°F  67°F  calm  calm  none  0.00"  29%  73%  34°F  58°F  29.81"
Sun 07:00 PM  74.0°F  70°F  calm  1 mph  1 mph  0.00"  24%  67%  34°F  58°F  29.79"
Sun 06:01 PM  81.2°F  75°F  calm  2 mph  1 mph  0.00"  22%  58%  37°F  58°F  29.81"
Sun 05:00 PM  82.8°F  78°F  calm  2 mph  8 mph  0.00"  21%  51%  37°F  58°F  29.80"
Sun 04:00 PM  82.2°F  81°F  1 mph S  3 mph  7 mph  0.00"  19%  47%  34°F  58°F  29.80"
Sun 03:00 PM  82.8°F  82°F  1 mph W  3 mph  10 mph  0.00"  21%  44%  37°F  57°F  29.81"
Sun 02:00 PM  84.5°F  83°F  1 mph W  3 mph  4 mph  0.00"  24%  43%  42°F  57°F  29.82"
Sun 01:01 PM  82.2°F  83°F  calm  2 mph  4 mph  0.00"  18%  42%  33°F  57°F  29.84"
Sun 12:01 PM  79.6°F  81°F  calm  1 mph  3 mph  0.00"  18%  44%  31°F  57°F  29.86"
Sun 11:00 AM  78.3°F  79°F  calm  1 mph  3 mph  0.00"  20%  49%  32°F  57°F  29.85"
Sun 10:00 AM  73.9°F  75°F  calm  calm  3 mph  0.00"  33%  55%  42°F  58°F  29.86"
Sun 09:00 AM  67.3°F  70°F  1 mph NE  calm  4 mph  0.00"  50%  63%  47°F  57°F  29.86"
Sun 08:00 AM  62.0°F  66°F  1 mph NE  calm  7 mph  0.00"  62%  70%  48°F  55°F  29.86"
Sun 07:01 AM  58.6°F  64°F  calm  calm  3 mph  0.00"  71%  71%  49°F  55°F  29.85"
Sun 06:00 AM  58.1°F  64°F  1 mph NE  calm  6 mph  0.00"  75%  72%  50°F  55°F  29.83"
Sun 05:00 AM  58.0°F  64°F  1 mph NE  calm  7 mph  0.00"  77%  73%  51°F  55°F  29.81"

  1. Current weather data. No green row appears if the current weather data is also the high or low for the current day.
  2. High temperature for the current day.
  3. Low temperature for the current day.

The De Luz, California weather pages are a service of WeatherCurrents. De Luz is located west of the Temecula Valley and north of Fallbrook, on the Santa Rosa Plateau, in southwestern Riverside County, California.
Copyright ©Mon Sep 25 16:55:41 PDT 2017  WeatherCurrents. All rights reserved. - Submit questions and comments - Privacy Policy

This page automatically refreshes every 10 minutes.